createdAt,value
2016-06-18T00:00:22.895Z,0
2016-06-18T00:01:22.882Z,0
2016-06-18T00:02:21.637Z,0
2016-06-18T00:03:22.858Z,0
2016-06-18T00:04:22.221Z,0
2016-06-18T00:05:22.224Z,0
2016-06-18T00:06:23.415Z,0
2016-06-18T00:07:21.543Z,0
2016-06-18T00:08:22.782Z,0
2016-06-18T00:09:21.550Z,0
2016-06-18T00:10:21.523Z,0
2016-06-18T00:11:21.496Z,0
2016-06-18T00:12:21.515Z,0
2016-06-18T00:13:22.128Z,0
2016-06-18T00:14:22.115Z,0
2016-06-18T00:15:22.087Z,0
2016-06-18T00:16:20.840Z,0
2016-06-18T00:17:21.422Z,0
2016-06-18T00:18:22.019Z,0
2016-06-18T00:19:22.039Z,0
2016-06-18T00:20:22.604Z,0
2016-06-18T00:21:21.983Z,0
2016-06-18T00:22:21.971Z,0
2016-06-18T00:23:22.021Z,0
2016-06-18T00:24:21.432Z,0
2016-06-18T00:25:21.935Z,0
2016-06-18T00:26:21.953Z,0
2016-06-18T00:27:21.926Z,0
2016-06-18T00:28:23.148Z,0
2016-06-18T00:29:20.667Z,0
2016-06-18T00:30:21.936Z,0
2016-06-18T00:31:22.486Z,0
2016-06-18T00:32:21.881Z,0
2016-06-18T00:33:21.212Z,0
2016-06-18T00:34:21.841Z,0
2016-06-18T00:35:21.797Z,0
2016-06-18T00:36:22.410Z,0
2016-06-18T00:37:22.398Z,0
2016-06-18T00:38:20.542Z,0
2016-06-18T00:39:20.529Z,0
2016-06-18T00:40:22.346Z,0
2016-06-18T00:41:21.740Z,0
2016-06-18T00:42:22.322Z,0
2016-06-18T00:43:22.310Z,0
2016-06-18T00:44:22.282Z,0
2016-06-18T00:45:20.457Z,0
2016-06-18T00:46:21.100Z,0
2016-06-18T00:47:21.026Z,0
2016-06-18T00:48:21.014Z,0
2016-06-18T00:49:21.611Z,0
2016-06-18T00:50:22.224Z,0
2016-06-18T00:51:20.977Z,0
2016-06-18T00:52:21.591Z,0
2016-06-18T00:53:22.782Z,0
2016-06-18T00:54:22.160Z,0
2016-06-18T00:55:21.523Z,0
2016-06-18T00:56:21.542Z,0
2016-06-18T00:57:21.530Z,0
2016-06-18T00:58:20.877Z,0
2016-06-18T00:59:20.865Z,0
2016-06-18T01:00:22.165Z,0
2016-06-18T01:01:21.450Z,0
2016-06-18T01:02:22.078Z,0
2016-06-18T01:03:22.050Z,0
2016-06-18T01:04:22.023Z,0
2016-06-18T01:05:21.401Z,0
2016-06-18T01:06:22.014Z,0
2016-06-18T01:07:22.595Z,0
2016-06-18T01:08:22.677Z,0
2016-06-18T01:09:20.758Z,0
2016-06-18T01:10:22.090Z,0
2016-06-18T01:11:21.937Z,0
2016-06-18T01:12:21.316Z,0
2016-06-18T01:13:21.366Z,0
2016-06-18T01:14:21.308Z,0
2016-06-18T01:15:21.279Z,0
2016-06-18T01:16:21.923Z,0
2016-06-18T01:17:22.568Z,0
2016-06-18T01:18:21.852Z,0
2016-06-18T01:19:21.200Z,0
2016-06-18T01:20:21.812Z,0
2016-06-18T01:21:20.597Z,0
2016-06-18T01:22:21.803Z,0
2016-06-18T01:23:21.775Z,0
2016-06-18T01:24:21.155Z,0
2016-06-18T01:25:21.126Z,0
2016-06-18T01:26:21.802Z,0
2016-06-18T01:27:20.525Z,0
2016-06-18T01:28:20.481Z,0
2016-06-18T01:29:21.093Z,0
2016-06-18T01:30:21.691Z,0
2016-06-18T01:31:21.101Z,0
2016-06-18T01:32:20.417Z,0
2016-06-18T01:33:20.452Z,0
2016-06-18T01:34:21.002Z,0
2016-06-18T01:35:20.989Z,0
2016-06-18T01:36:20.383Z,0
2016-06-18T01:37:21.027Z,0
2016-06-18T01:38:20.359Z,0
2016-06-18T01:39:20.956Z,0
2016-06-18T01:40:20.929Z,0
2016-06-18T01:41:20.932Z,0
2016-06-18T01:42:19.670Z,0
2016-06-18T01:43:20.892Z,0
2016-06-18T01:44:20.895Z,0
2016-06-18T01:45:20.290Z,0
2016-06-18T01:46:20.841Z,0
2016-06-18T01:47:20.859Z,0
2016-06-18T01:48:20.815Z,0
2016-06-18T01:49:20.804Z,0
2016-06-18T01:50:20.808Z,0
2016-06-18T01:51:20.778Z,0
2016-06-18T01:52:20.782Z,0
2016-06-18T01:53:21.333Z,0
2016-06-18T01:54:20.136Z,0
2016-06-18T01:55:21.345Z,0
2016-06-18T01:56:20.695Z,0
2016-06-18T01:57:21.343Z,0
2016-06-18T01:58:21.303Z,0
2016-06-18T01:59:21.917Z,0
2016-06-18T02:00:20.671Z,0
2016-06-18T02:01:20.692Z,0
2016-06-18T02:02:21.259Z,0
2016-06-18T02:03:20.779Z,0
2016-06-18T02:04:21.236Z,0
2016-06-18T02:05:21.240Z,0
2016-06-18T02:06:21.244Z,0
2016-06-18T02:07:20.795Z,0
2016-06-18T02:08:20.565Z,0
2016-06-18T02:09:20.584Z,0
2016-06-18T02:10:21.181Z,0
2016-06-18T02:11:20.529Z,0
2016-06-18T02:12:20.517Z,0
2016-06-18T02:13:21.115Z,0
2016-06-18T02:14:20.524Z,0
2016-06-18T02:15:19.950Z,0
2016-06-18T02:16:19.875Z,0
2016-06-18T02:17:21.691Z,0
2016-06-18T02:18:21.054Z,0
2016-06-18T02:19:20.447Z,0
2016-06-18T02:20:20.436Z,0
2016-06-18T02:21:21.626Z,0
2016-06-18T02:22:20.396Z,0
2016-06-18T02:23:21.039Z,0
2016-06-18T02:24:21.012Z,0
2016-06-18T02:25:20.375Z,0
2016-06-18T02:26:19.722Z,0
2016-06-18T02:27:20.913Z,0
2016-06-18T02:28:20.291Z,0
2016-06-18T02:29:20.935Z,0
2016-06-18T02:30:21.533Z,0
2016-06-18T02:31:19.677Z,0
2016-06-18T02:32:20.853Z,0
2016-06-18T02:33:20.231Z,0
2016-06-18T02:34:19.640Z,0
2016-06-18T02:35:20.878Z,0
2016-06-18T02:36:20.820Z,0
2016-06-18T02:37:21.384Z,0
2016-06-18T02:38:19.545Z,0
2016-06-18T02:39:20.189Z,0
2016-06-18T02:40:20.131Z,0
2016-06-18T02:41:20.758Z,0
2016-06-18T02:42:21.355Z,0
2016-06-18T02:43:20.733Z,0
2016-06-18T02:44:20.112Z,0
2016-06-18T02:45:21.288Z,0
2016-06-18T02:46:19.447Z,0
2016-06-18T02:47:21.247Z,0
2016-06-18T02:48:20.033Z,0
2016-06-18T02:49:19.427Z,0
2016-06-18T02:50:20.601Z,0
2016-06-18T02:51:19.965Z,0
2016-06-18T02:52:20.578Z,0
2016-06-18T02:53:20.581Z,0
2016-06-18T02:54:19.943Z,0
2016-06-18T02:55:19.932Z,0
2016-06-18T02:56:18.700Z,0
2016-06-18T02:57:20.517Z,0
2016-06-18T02:58:20.536Z,0
2016-06-18T02:59:21.133Z,0
2016-06-18T03:00:21.152Z,0
2016-06-18T03:01:20.484Z,0
2016-06-18T03:02:21.049Z,0
2016-06-18T03:03:19.882Z,0
2016-06-18T03:04:20.431Z,0
2016-06-18T03:05:21.013Z,0
2016-06-18T03:06:18.595Z,0
2016-06-18T03:07:21.036Z,0
2016-06-18T03:08:19.149Z,0
2016-06-18T03:09:19.745Z,0
2016-06-18T03:10:19.749Z,0
2016-06-18T03:11:20.315Z,0
2016-06-18T03:12:20.319Z,0
2016-06-18T03:13:19.087Z,0
2016-06-18T03:14:19.669Z,0
2016-06-18T03:15:19.735Z,0
2016-06-18T03:16:20.239Z,0
2016-06-18T03:17:20.226Z,0
2016-06-18T03:18:20.871Z,0
2016-06-18T03:19:19.608Z,0
2016-06-18T03:20:20.783Z,0
2016-06-18T03:21:20.178Z,0
2016-06-18T03:22:20.182Z,0
2016-06-18T03:23:20.137Z,0
2016-06-18T03:24:20.157Z,0
2016-06-18T03:25:20.129Z,0
2016-06-18T03:26:20.726Z,0
2016-06-18T03:27:20.089Z,0
2016-06-18T03:28:20.108Z,0
2016-06-18T03:29:20.064Z,0
2016-06-18T03:30:20.100Z,0
2016-06-18T03:31:20.025Z,0
2016-06-18T03:32:20.043Z,0
2016-06-18T03:33:18.797Z,0
2016-06-18T03:34:19.395Z,0
2016-06-18T03:35:19.368Z,0
2016-06-18T03:36:18.760Z,0
2016-06-18T03:37:19.999Z,0
2016-06-18T03:38:19.346Z,0
2016-06-18T03:39:19.318Z,0
2016-06-18T03:40:19.931Z,0
2016-06-18T03:41:19.294Z,0
2016-06-18T03:42:19.281Z,0
2016-06-18T03:43:19.879Z,0
2016-06-18T03:44:19.852Z,0
2016-06-18T03:45:19.855Z,0
2016-06-18T03:46:19.295Z,0
2016-06-18T03:47:19.205Z,0
2016-06-18T03:48:19.224Z,0
2016-06-18T03:49:19.197Z,0
2016-06-18T03:50:19.778Z,0
2016-06-18T03:51:20.251Z,0
2016-06-18T03:52:19.754Z,0
2016-06-18T03:53:19.742Z,0
2016-06-18T03:54:19.136Z,0
2016-06-18T03:55:19.092Z,0
2016-06-18T03:56:19.721Z,0
2016-06-18T03:57:19.083Z,0
2016-06-18T03:58:19.697Z,0
2016-06-18T03:59:19.075Z,5
2016-06-18T04:00:19.719Z,5
2016-06-18T04:01:20.238Z,5
2016-06-18T04:02:19.617Z,5
2016-06-18T04:03:20.198Z,10
2016-06-18T04:04:19.030Z,10
2016-06-18T04:05:19.564Z,10
2016-06-18T04:06:19.630Z,10
2016-06-18T04:07:19.556Z,10
2016-06-18T04:08:18.982Z,10
2016-06-18T04:09:19.516Z,15
2016-06-18T04:10:19.568Z,15
2016-06-18T04:11:18.890Z,15
2016-06-18T04:12:18.322Z,15
2016-06-18T04:13:19.488Z,15
2016-06-18T04:14:17.699Z,15
2016-06-18T04:15:18.865Z,15
2016-06-18T04:16:19.527Z,15
2016-06-18T04:17:19.439Z,15
2016-06-18T04:18:18.272Z,15
2016-06-18T04:19:19.481Z,15
2016-06-18T04:20:20.033Z,15
2016-06-18T04:21:18.788Z,15
2016-06-18T04:22:20.041Z,20
2016-06-18T04:23:18.735Z,20
2016-06-18T04:24:18.753Z,20
2016-06-18T04:25:19.367Z,15
2016-06-18T04:26:18.105Z,15
2016-06-18T04:27:18.704Z,10
2016-06-18T04:28:19.910Z,10
2016-06-18T04:29:19.336Z,10
2016-06-18T04:30:18.668Z,5
2016-06-18T04:31:17.421Z,5
2016-06-18T04:32:19.252Z,5
2016-06-18T04:33:18.631Z,10
2016-06-18T04:34:18.634Z,10
2016-06-18T04:35:18.591Z,10
2016-06-18T04:36:17.986Z,10
2016-06-18T04:37:19.769Z,5
2016-06-18T04:38:19.179Z,5
2016-06-18T04:39:19.777Z,5
2016-06-18T04:40:18.561Z,5
2016-06-18T04:41:19.783Z,5
2016-06-18T04:42:17.897Z,5
2016-06-18T04:43:19.134Z,5
2016-06-18T04:44:18.482Z,5
2016-06-18T04:45:19.704Z,5
2016-06-18T04:46:18.442Z,5
2016-06-18T04:47:18.429Z,5
2016-06-18T04:48:18.480Z,5
2016-06-18T04:49:19.639Z,5
2016-06-18T04:50:19.018Z,10
2016-06-18T04:51:18.412Z,10
2016-06-18T04:52:18.978Z,10
2016-06-18T04:53:18.388Z,10
2016-06-18T04:54:18.359Z,10
2016-06-18T04:55:19.582Z,15
2016-06-18T04:56:17.710Z,15
2016-06-18T04:57:18.308Z,15
2016-06-18T04:58:17.670Z,15
2016-06-18T04:59:18.877Z,15
2016-06-18T05:00:17.099Z,15
2016-06-18T05:01:19.493Z,15
2016-06-18T05:02:18.294Z,15
2016-06-18T05:03:18.282Z,15
2016-06-18T05:04:17.035Z,15
2016-06-18T05:05:19.414Z,15
2016-06-18T05:06:17.620Z,15
2016-06-18T05:07:18.154Z,15
2016-06-18T05:08:19.362Z,15
2016-06-18T05:09:18.147Z,15
2016-06-18T05:10:18.789Z,15
2016-06-18T05:11:18.106Z,20
2016-06-18T05:12:18.126Z,15
2016-06-18T05:13:18.083Z,15
2016-06-18T05:14:18.694Z,15
2016-06-18T05:15:17.479Z,15
2016-06-18T05:16:17.451Z,15
2016-06-18T05:17:18.674Z,15
2016-06-18T05:18:18.006Z,15
2016-06-18T05:19:18.055Z,10
2016-06-18T05:20:16.778Z,10
2016-06-18T05:21:19.203Z,10
2016-06-18T05:22:17.956Z,10
2016-06-18T05:23:16.742Z,10
2016-06-18T05:24:18.558Z,15
2016-06-18T05:25:18.591Z,15
2016-06-18T05:26:19.205Z,20
2016-06-18T05:27:17.959Z,20
2016-06-18T05:28:18.493Z,20
2016-06-18T05:29:17.887Z,25
2016-06-18T05:30:17.297Z,25
2016-06-18T05:31:18.441Z,20
2016-06-18T05:32:18.460Z,25
2016-06-18T05:33:17.839Z,25
2016-06-18T05:34:17.201Z,25
2016-06-18T05:35:17.798Z,20
2016-06-18T05:36:17.802Z,20
2016-06-18T05:37:18.383Z,20
2016-06-18T05:38:17.761Z,20
2016-06-18T05:39:18.359Z,15
2016-06-18T05:40:17.754Z,15
2016-06-18T05:41:18.944Z,15
2016-06-18T05:42:18.933Z,15
2016-06-18T05:43:18.342Z,15
2016-06-18T05:44:17.079Z,15
2016-06-18T05:45:18.896Z,15
2016-06-18T05:46:18.258Z,10
2016-06-18T05:47:18.262Z,10
2016-06-18T05:48:17.078Z,10
2016-06-18T05:49:18.847Z,10
2016-06-18T05:50:17.616Z,10
2016-06-18T05:51:17.620Z,10
2016-06-18T05:52:18.201Z,10
2016-06-18T05:53:18.188Z,15
2016-06-18T05:54:17.567Z,15
2016-06-18T05:55:16.914Z,15
2016-06-18T05:56:17.496Z,15
2016-06-18T05:57:18.141Z,20
2016-06-18T05:58:17.472Z,20
2016-06-18T05:59:18.084Z,20
2016-06-18T06:00:17.463Z,25
2016-06-18T06:01:16.841Z,25
2016-06-18T06:02:16.830Z,25
2016-06-18T06:03:17.473Z,25
2016-06-18T06:04:18.039Z,30
2016-06-18T06:05:17.465Z,30
2016-06-18T06:06:17.391Z,30
2016-06-18T06:07:17.394Z,30
2016-06-18T06:08:17.990Z,30
2016-06-18T06:09:18.604Z,30
2016-06-18T06:10:16.779Z,35
2016-06-18T06:11:18.001Z,35
2016-06-18T06:12:17.317Z,35
2016-06-18T06:13:17.273Z,40
2016-06-18T06:14:16.699Z,40
2016-06-18T06:15:17.874Z,40
2016-06-18T06:16:17.878Z,40
2016-06-18T06:17:17.866Z,40
2016-06-18T06:18:17.854Z,40
2016-06-18T06:19:17.825Z,45
2016-06-18T06:20:16.001Z,45
2016-06-18T06:21:16.567Z,45
2016-06-18T06:22:17.163Z,45
2016-06-18T06:23:18.386Z,45
2016-06-18T06:24:17.764Z,45
2016-06-18T06:25:17.769Z,45
2016-06-18T06:26:17.757Z,45
2016-06-18T06:27:17.136Z,45
2016-06-18T06:28:17.734Z,50
2016-06-18T06:29:18.362Z,55
2016-06-18T06:30:17.102Z,55
2016-06-18T06:31:17.074Z,60
2016-06-18T06:32:17.047Z,60
2016-06-18T06:33:17.661Z,60
2016-06-18T06:34:17.664Z,55
2016-06-18T06:35:17.043Z,55
2016-06-18T06:36:16.984Z,55
2016-06-18T06:37:17.018Z,55
2016-06-18T06:38:17.006Z,55
2016-06-18T06:39:16.963Z,55
2016-06-18T06:40:16.982Z,55
2016-06-18T06:41:17.533Z,55
2016-06-18T06:42:15.785Z,55
2016-06-18T06:43:16.914Z,55
2016-06-18T06:44:17.527Z,55
2016-06-18T06:45:17.531Z,55
2016-06-18T06:46:17.488Z,55
2016-06-18T06:47:16.272Z,60
2016-06-18T06:48:16.244Z,50
2016-06-18T06:49:16.217Z,55
2016-06-18T06:50:16.252Z,55
2016-06-18T06:51:17.458Z,55
2016-06-18T06:52:16.181Z,55
2016-06-18T06:53:16.776Z,55
2016-06-18T06:54:16.843Z,60
2016-06-18T06:55:16.159Z,60
2016-06-18T06:56:17.428Z,65
2016-06-18T06:57:17.354Z,65
2016-06-18T06:58:16.748Z,70
2016-06-18T06:59:16.094Z,70
2016-06-18T07:00:16.708Z,75
2016-06-18T07:01:16.102Z,75
2016-06-18T07:02:16.730Z,80
2016-06-18T07:03:17.375Z,80
2016-06-18T07:04:16.705Z,80
2016-06-18T07:05:16.022Z,80
2016-06-18T07:06:16.026Z,85
2016-06-18T07:07:16.638Z,85
2016-06-18T07:08:17.220Z,85
2016-06-18T07:09:15.411Z,90
2016-06-18T07:10:15.976Z,95
2016-06-18T07:11:16.589Z,100
2016-06-18T07:12:15.953Z,100
2016-06-18T07:13:15.940Z,105
2016-06-18T07:14:16.522Z,110
2016-06-18T07:15:17.134Z,110
2016-06-18T07:16:16.497Z,120
2016-06-18T07:17:15.875Z,130
2016-06-18T07:18:17.082Z,135
2016-06-18T07:19:15.274Z,135
2016-06-18T07:20:16.434Z,135
2016-06-18T07:21:17.030Z,130
2016-06-18T07:22:17.143Z,125
2016-06-18T07:23:16.443Z,130
2016-06-18T07:24:15.806Z,150
2016-06-18T07:25:17.012Z,190
2016-06-18T07:26:16.407Z,215
2016-06-18T07:27:17.630Z,260
2016-06-18T07:28:15.757Z,270
2016-06-18T07:29:15.183Z,260
2016-06-18T07:30:16.983Z,260
2016-06-18T07:31:15.705Z,310
2016-06-18T07:32:15.709Z,310
2016-06-18T07:33:16.900Z,330
2016-06-18T07:34:16.294Z,360
2016-06-18T07:35:16.297Z,355
2016-06-18T07:36:17.020Z,345
2016-06-18T07:37:16.867Z,335
2016-06-18T07:38:16.229Z,325
2016-06-18T07:39:16.874Z,250
2016-06-18T07:40:15.611Z,205
2016-06-18T07:41:15.006Z,180
2016-06-18T07:42:16.853Z,170
2016-06-18T07:43:16.793Z,170
2016-06-18T07:44:16.157Z,180
2016-06-18T07:45:16.144Z,185
2016-06-18T07:46:15.539Z,130
2016-06-18T07:47:16.761Z,110
2016-06-18T07:48:15.514Z,90
2016-06-18T07:49:15.720Z,80
2016-06-18T07:50:16.099Z,75
2016-06-18T07:51:15.494Z,65
2016-06-18T07:52:16.715Z,65
2016-06-18T07:53:16.063Z,65
2016-06-18T07:54:16.769Z,60
2016-06-18T07:55:16.070Z,60
2016-06-18T07:56:15.416Z,60
2016-06-18T07:57:15.436Z,65
2016-06-18T07:58:16.034Z,65
2016-06-18T07:59:15.412Z,70
2016-06-18T08:00:15.977Z,70
2016-06-18T08:01:15.981Z,75
2016-06-18T08:02:15.953Z,75
2016-06-18T08:03:15.363Z,75
2016-06-18T08:04:17.179Z,75
2016-06-18T08:05:15.964Z,75
2016-06-18T08:06:15.311Z,80
2016-06-18T08:07:16.532Z,85
2016-06-18T08:08:15.911Z,90
2016-06-18T08:09:15.899Z,90
2016-06-18T08:10:15.872Z,95
2016-06-18T08:11:15.859Z,100
2016-06-18T08:12:15.254Z,100
2016-06-18T08:13:15.242Z,100
2016-06-18T08:14:15.838Z,100
2016-06-18T08:15:15.858Z,95
2016-06-18T08:16:15.813Z,95
2016-06-18T08:17:15.224Z,90
2016-06-18T08:18:14.555Z,90
2016-06-18T08:19:15.825Z,85
2016-06-18T08:20:16.375Z,90
2016-06-18T08:21:15.160Z,90
2016-06-18T08:22:15.709Z,95
2016-06-18T08:23:15.182Z,95
2016-06-18T08:24:16.341Z,100
2016-06-18T08:25:15.127Z,110
2016-06-18T08:26:15.709Z,115
2016-06-18T08:27:15.134Z,125
2016-06-18T08:28:16.262Z,135
2016-06-18T08:29:15.702Z,145
2016-06-18T08:30:15.628Z,150
2016-06-18T08:31:15.007Z,155
2016-06-18T08:32:17.073Z,160
2016-06-18T08:33:15.608Z,165
2016-06-18T08:34:15.595Z,165
2016-06-18T08:35:15.567Z,170
2016-06-18T08:36:15.602Z,175
2016-06-18T08:37:16.168Z,185
2016-06-18T08:38:14.937Z,195
2016-06-18T08:39:14.925Z,245
2016-06-18T08:40:15.569Z,290
2016-06-18T08:41:16.150Z,350
2016-06-18T08:42:14.263Z,340
2016-06-18T08:43:16.097Z,370
2016-06-18T08:47:15.266Z,175
2016-06-18T08:47:26.594Z,175
2016-06-18T08:47:33.000Z,215
2016-06-18T08:47:42.500Z,215
2016-06-18T08:48:42.476Z,220
2016-06-18T08:49:43.716Z,215
2016-06-18T08:50:43.080Z,195
2016-06-18T08:51:42.445Z,180
2016-06-18T08:52:44.356Z,170
2016-06-18T08:53:43.064Z,160
2016-06-18T08:54:43.083Z,160
2016-06-18T08:55:42.432Z,165
2016-06-18T08:56:43.669Z,185
2016-06-18T08:57:44.251Z,230
2016-06-18T08:58:43.677Z,315
2016-06-18T08:59:43.009Z,245
2016-06-18T09:00:43.028Z,285
2016-06-18T09:01:41.814Z,295
2016-06-18T09:02:43.584Z,305
2016-06-18T09:03:42.961Z,380
2016-06-18T09:04:42.355Z,410
2016-06-18T09:05:41.703Z,330
2016-06-18T09:06:42.925Z,335
2016-06-18T09:07:43.521Z,220
2016-06-18T09:08:43.525Z,190
2016-06-18T09:09:42.889Z,175
2016-06-18T09:10:43.501Z,160
2016-06-18T09:11:41.739Z,155
2016-06-18T09:12:43.539Z,150
2016-06-18T09:13:42.856Z,155
2016-06-18T09:14:42.250Z,160
2016-06-18T09:15:43.487Z,165
2016-06-18T09:16:44.132Z,160
2016-06-18T09:17:41.667Z,160
2016-06-18T09:20:19.191Z,145
2016-06-18T09:21:18.991Z,145
2016-06-18T09:22:19.603Z,145
2016-06-18T09:23:20.373Z,155
2016-06-18T09:24:18.721Z,165
2016-06-18T09:25:18.927Z,180
2016-06-18T09:26:18.352Z,175
2016-06-18T09:27:18.918Z,155
2016-06-18T09:28:19.703Z,145
2016-06-18T09:29:20.113Z,140
2016-06-18T09:30:17.538Z,145
2016-06-18T09:31:18.167Z,155
2016-06-18T09:32:18.811Z,160
2016-06-18T09:33:19.392Z,155
2016-06-18T09:34:18.192Z,150
2016-06-18T09:35:19.352Z,150
2016-06-18T09:36:18.746Z,145
2016-06-18T09:37:17.515Z,145
2016-06-18T09:38:19.316Z,155
2016-06-18T09:39:17.491Z,165
2016-06-18T09:40:17.510Z,175
2016-06-18T09:41:18.092Z,185
2016-06-18T09:42:17.814Z,185
2016-06-18T09:43:18.084Z,170
2016-06-18T09:44:18.039Z,155
2016-06-18T09:45:18.652Z,145
2016-06-18T09:46:18.015Z,135
2016-06-18T09:47:18.628Z,125
2016-06-18T09:48:19.256Z,115
2016-06-18T09:49:19.197Z,120
2016-06-18T09:50:19.216Z,125
2016-06-18T09:51:19.173Z,130
2016-06-18T09:52:17.958Z,135
2016-06-18T09:53:19.164Z,140
2016-06-18T09:54:19.136Z,145
2016-06-18T09:55:19.140Z,160
2016-06-18T09:56:19.174Z,165
2016-06-18T09:57:17.882Z,160
2016-06-18T09:58:18.525Z,160
2016-06-18T09:59:19.747Z,160
2016-06-18T10:00:19.095Z,155
2016-06-18T10:01:18.816Z,150
2016-06-18T10:02:19.055Z,150
2016-06-18T10:03:19.027Z,155
2016-06-18T10:04:18.437Z,150
2016-06-18T10:05:18.440Z,155
2016-06-18T10:06:17.803Z,155
2016-06-18T10:07:17.181Z,155
2016-06-18T10:08:19.060Z,145
2016-06-18T10:09:17.158Z,145
2016-06-18T10:10:19.036Z,135
2016-06-18T10:11:17.742Z,135
2016-06-18T10:12:17.121Z,135
2016-06-18T10:13:18.343Z,130
2016-06-18T10:14:18.315Z,125
2016-06-18T10:15:18.318Z,120
2016-06-18T10:16:18.290Z,105
2016-06-18T10:17:18.310Z,95
2016-06-18T10:18:17.110Z,90
2016-06-18T10:19:19.504Z,85
2016-06-18T10:20:17.680Z,85
2016-06-18T10:21:18.902Z,70
2016-06-18T10:22:17.624Z,60
2016-06-18T10:23:17.659Z,55
2016-06-18T10:24:18.209Z,50
2016-06-18T10:25:18.290Z,45
2016-06-18T10:26:17.606Z,40
2016-06-18T10:27:18.219Z,30
2016-06-18T10:28:17.550Z,35
2016-06-18T10:29:17.539Z,35
2016-06-18T10:30:18.167Z,40
2016-06-18T10:31:16.921Z,45
2016-06-18T10:32:18.736Z,45
2016-06-18T10:33:18.787Z,45
2016-06-18T10:34:18.118Z,45
2016-06-18T10:35:18.169Z,45
2016-06-18T10:36:18.125Z,45
2016-06-18T10:37:18.066Z,40
2016-06-18T10:38:18.070Z,40
2016-06-18T10:39:18.058Z,40
2016-06-18T10:40:18.014Z,40
2016-06-18T10:41:18.627Z,40
2016-06-18T10:42:17.381Z,40
2016-06-18T10:43:17.993Z,40
2016-06-18T10:44:18.590Z,45
2016-06-18T10:45:18.001Z,40
2016-06-18T10:46:18.566Z,40
2016-06-18T10:47:17.351Z,40
2016-06-18T10:48:17.385Z,45
2016-06-18T10:49:17.326Z,50
2016-06-18T10:50:17.315Z,60
2016-06-18T10:51:17.302Z,65
2016-06-18T10:52:17.291Z,70
2016-06-18T10:53:17.294Z,75
2016-06-18T10:54:17.860Z,90
2016-06-18T10:55:17.254Z,95
2016-06-18T10:56:17.866Z,100
2016-06-18T10:57:18.433Z,105
2016-06-18T10:58:16.607Z,110
2016-06-18T10:59:18.486Z,125
2016-06-18T11:00:17.834Z,140
2016-06-18T11:01:17.197Z,165
2016-06-18T11:02:18.371Z,160
2016-06-18T11:03:16.547Z,170
2016-06-18T11:04:17.160Z,170
2016-06-18T11:05:18.336Z,180
2016-06-18T11:06:17.729Z,180
2016-06-18T11:07:18.358Z,220
2016-06-18T11:08:17.174Z,210
2016-06-18T11:09:18.303Z,205
2016-06-18T11:10:17.681Z,210
2016-06-18T11:11:16.449Z,210
2016-06-18T11:12:17.063Z,220
2016-06-18T11:13:17.081Z,210
2016-06-18T11:14:17.647Z,180
2016-06-18T11:15:17.604Z,170
2016-06-18T11:16:17.013Z,170
2016-06-18T11:17:18.205Z,180
2016-06-18T11:18:17.006Z,170
2016-06-18T11:19:16.962Z,155
2016-06-18T11:20:16.980Z,140
2016-06-18T11:21:16.953Z,140
2016-06-18T11:22:17.535Z,140
2016-06-18T11:23:16.959Z,135
2016-06-18T11:24:16.948Z,130
2016-06-18T11:25:17.715Z,130
2016-06-18T11:26:18.125Z,135
2016-06-18T11:27:16.878Z,135
2016-06-18T11:28:18.100Z,135
2016-06-18T11:29:17.510Z,140
2016-06-18T11:30:16.357Z,140
2016-06-18T11:31:16.830Z,145
2016-06-18T11:32:17.505Z,175
2016-06-18T11:33:18.055Z,175
2016-06-18T11:34:18.621Z,185
2016-06-18T11:41:18.604Z,195
2016-06-18T11:42:18.592Z,185
2016-06-18T11:43:18.564Z,180
2016-06-18T11:44:19.787Z,170
2016-06-18T11:45:18.556Z,155
2016-06-18T11:46:18.543Z,155
2016-06-18T11:47:19.814Z,160
2016-06-18T11:48:19.253Z,160
2016-06-18T11:49:19.117Z,175
2016-06-18T11:50:17.932Z,175
2016-06-18T11:51:18.499Z,205
2016-06-18T11:52:19.143Z,350
2016-06-18T11:53:19.084Z,255
2016-06-18T11:54:18.541Z,225
2016-06-18T11:55:17.841Z,220
2016-06-18T11:56:19.064Z,225
2016-06-18T11:57:20.270Z,210
2016-06-18T11:58:19.649Z,210
2016-06-18T11:59:18.497Z,210
2016-06-18T12:00:19.048Z,205
2016-06-18T12:01:19.616Z,205
2016-06-18T12:02:19.589Z,210
2016-06-18T12:03:18.468Z,215
2016-06-18T12:04:18.957Z,210
2016-06-18T12:05:19.585Z,200
2016-06-18T12:06:18.339Z,180
2016-06-18T12:07:18.343Z,170
2016-06-18T12:08:18.956Z,165
2016-06-18T12:09:20.162Z,160
2016-06-18T12:10:20.135Z,160
2016-06-18T12:11:19.513Z,165
2016-06-18T12:12:18.330Z,160
2016-06-18T12:13:18.301Z,155
2016-06-18T12:14:20.086Z,145
2016-06-18T12:15:18.324Z,135
2016-06-18T12:16:19.469Z,135
2016-06-18T12:17:18.237Z,140
2016-06-18T12:18:18.836Z,140
2016-06-18T12:19:18.214Z,140
2016-06-18T12:20:18.874Z,135
2016-06-18T12:21:19.425Z,135
2016-06-18T12:22:17.584Z,135
2016-06-18T12:23:18.837Z,135
2016-06-18T12:24:18.779Z,135
2016-06-18T12:25:18.814Z,135
2016-06-18T12:26:18.755Z,130
2016-06-18T12:27:18.789Z,130
2016-06-18T12:28:19.980Z,130
2016-06-18T12:29:18.750Z,135
2016-06-18T12:30:19.331Z,150
2016-06-18T12:31:18.756Z,160
2016-06-18T12:32:18.103Z,170
2016-06-18T12:33:18.685Z,185
2016-06-18T12:34:19.344Z,200
2016-06-18T12:35:18.692Z,280
2016-06-18T12:36:18.055Z,335
2016-06-18T12:37:19.261Z,380
2016-06-18T12:38:19.859Z,365
2016-06-18T12:39:18.675Z,300
2016-06-18T12:40:19.257Z,370
2016-06-18T12:41:19.229Z,380
2016-06-18T12:42:19.232Z,380
2016-06-18T12:43:17.986Z,375
2016-06-18T12:44:18.583Z,365
2016-06-18T12:45:18.586Z,360
2016-06-18T12:46:18.589Z,355
2016-06-18T12:47:18.562Z,340
2016-06-18T12:48:19.159Z,325
2016-06-18T12:49:19.413Z,310
2016-06-18T12:50:17.338Z,310
2016-06-18T12:51:19.764Z,305
2016-06-18T12:52:17.924Z,300
2016-06-18T12:53:18.522Z,295
2016-06-18T12:54:18.509Z,290
2016-06-18T12:55:17.888Z,285
2016-06-18T12:56:17.861Z,285
2016-06-18T12:57:19.708Z,285
2016-06-18T12:58:17.883Z,280
2016-06-18T12:59:17.855Z,285
2016-06-18T13:00:18.468Z,290
2016-06-18T13:01:17.300Z,290
2016-06-18T13:02:19.069Z,210
2016-06-18T13:03:18.432Z,215
2016-06-18T13:04:18.435Z,265
2016-06-18T13:05:19.626Z,300
2016-06-18T13:06:18.395Z,290
2016-06-18T13:07:17.774Z,290
2016-06-18T13:08:18.402Z,285
2016-06-18T13:09:19.031Z,285
2016-06-18T13:10:17.768Z,260
2016-06-18T13:11:19.038Z,280
2016-06-18T13:12:19.634Z,280
2016-06-18T13:13:18.326Z,275
2016-06-18T13:14:18.376Z,265
2016-06-18T13:15:18.332Z,275
2016-06-18T13:16:18.336Z,260
2016-06-18T13:17:18.933Z,160
2016-06-18T13:18:18.342Z,155
2016-06-18T13:19:18.940Z,145
2016-06-18T13:20:18.287Z,145
2016-06-18T13:21:17.697Z,140
2016-06-18T13:22:17.779Z,155
2016-06-18T13:23:18.283Z,175
2016-06-18T13:24:18.349Z,150
2016-06-18T13:25:18.292Z,135
2016-06-18T13:26:18.280Z,135
2016-06-18T13:27:17.035Z,145
2016-06-18T13:28:19.477Z,155
2016-06-18T13:29:17.621Z,180
2016-06-18T13:30:18.203Z,185
2016-06-18T13:31:18.207Z,180
2016-06-18T13:32:18.211Z,165
2016-06-18T13:33:19.418Z,160
2016-06-18T13:34:18.813Z,160
2016-06-18T13:35:18.786Z,155
2016-06-18T13:36:18.211Z,155
2016-06-18T13:37:18.777Z,155
2016-06-18T13:38:18.780Z,145
2016-06-18T13:39:18.128Z,140
2016-06-18T13:40:18.772Z,135
2016-06-18T13:41:19.354Z,125
2016-06-18T13:42:16.888Z,120
2016-06-18T13:43:18.720Z,120
2016-06-18T13:44:17.521Z,125
2016-06-18T13:45:18.102Z,125
2016-06-18T13:46:17.466Z,125
2016-06-18T13:47:18.687Z,125
2016-06-18T13:48:18.128Z,130
2016-06-18T13:49:17.491Z,130
2016-06-18T13:50:17.447Z,130
2016-06-18T13:51:18.045Z,135
2016-06-18T13:52:18.111Z,160
2016-06-18T13:53:18.615Z,150
2016-06-18T13:54:18.633Z,145
2016-06-18T13:55:17.480Z,140
2016-06-18T13:56:17.390Z,140
2016-06-18T13:57:17.362Z,140
2016-06-18T13:58:17.989Z,145
2016-06-18T13:59:17.961Z,145
2016-06-18T14:00:17.338Z,145
2016-06-18T14:01:18.543Z,145
2016-06-18T14:02:17.326Z,145
2016-06-18T14:03:17.377Z,140
2016-06-18T14:04:17.302Z,145
2016-06-18T14:05:17.945Z,145
2016-06-18T14:06:17.917Z,140
2016-06-18T14:07:17.890Z,135
2016-06-18T14:08:17.876Z,135
2016-06-18T14:09:17.318Z,130
2016-06-18T14:10:17.291Z,125
2016-06-18T14:11:17.247Z,125
2016-06-18T14:12:17.829Z,125
2016-06-18T14:13:18.519Z,125
2016-06-18T14:14:17.835Z,120
2016-06-18T14:15:18.417Z,125
2016-06-18T14:16:16.639Z,130
2016-06-18T14:17:19.033Z,140
2016-06-18T14:18:17.771Z,145
2016-06-18T14:19:17.806Z,150
2016-06-18T14:20:18.387Z,150